sensor_id;sensor_type;location;lat;lon;timestamp;pressure;altitude;pressure_sealevel;temperature;humidity
76827;BME280;65788;52.284;20.890;2023-04-25T00:02:14;99142.48;;;21.87;37.87
76827;BME280;65788;52.284;20.890;2023-04-25T00:04:41;99140.96;;;21.84;37.93
76827;BME280;65788;52.284;20.890;2023-04-25T00:07:08;99138.05;;;21.82;37.95
76827;BME280;65788;52.284;20.890;2023-04-25T00:09:35;99141.95;;;21.80;37.96
76827;BME280;65788;52.284;20.890;2023-04-25T00:12:04;99139.43;;;21.80;37.98
76827;BME280;65788;52.284;20.890;2023-04-25T00:14:31;99144.05;;;21.78;38.01
76827;BME280;65788;52.284;20.890;2023-04-25T00:17:01;99141.59;;;21.75;38.08
76827;BME280;65788;52.284;20.890;2023-04-25T00:19:29;99137.83;;;21.72;38.12
76827;BME280;65788;52.284;20.890;2023-04-25T00:21:56;99138.05;;;21.71;38.13
76827;BME280;65788;52.284;20.890;2023-04-25T00:24:24;99136.91;;;21.66;38.19
76827;BME280;65788;52.284;20.890;2023-04-25T00:26:51;99133.92;;;21.64;38.28
76827;BME280;65788;52.284;20.890;2023-04-25T00:29:18;99135.71;;;21.64;38.20
76827;BME280;65788;52.284;20.890;2023-04-25T00:31:45;99137.94;;;21.63;38.21
76827;BME280;65788;52.284;20.890;2023-04-25T00:34:12;99140.02;;;21.58;38.28
76827;BME280;65788;52.284;20.890;2023-04-25T00:36:39;99145.65;;;21.58;38.29
76827;BME280;65788;52.284;20.890;2023-04-25T00:39:06;99147.13;;;21.56;38.34
76827;BME280;65788;52.284;20.890;2023-04-25T00:41:33;99138.23;;;21.57;38.27
76827;BME280;65788;52.284;20.890;2023-04-25T00:44:01;99139.48;;;21.54;38.29
76827;BME280;65788;52.284;20.890;2023-04-25T00:46:30;99140.09;;;21.53;38.32
76827;BME280;65788;52.284;20.890;2023-04-25T00:48:57;99138.52;;;21.53;38.29
76827;BME280;65788;52.284;20.890;2023-04-25T00:51:25;99139.66;;;21.52;38.33
76827;BME280;65788;52.284;20.890;2023-04-25T00:53:53;99141.81;;;21.50;38.36
76827;BME280;65788;52.284;20.890;2023-04-25T00:56:22;99141.77;;;21.49;38.38
76827;BME280;65788;52.284;20.890;2023-04-25T00:58:50;99146.95;;;21.50;38.33
76827;BME280;65788;52.284;20.890;2023-04-25T01:01:19;99146.98;;;21.48;38.55
76827;BME280;65788;52.284;20.890;2023-04-25T01:03:46;99147.77;;;21.48;38.39
76827;BME280;65788;52.284;20.890;2023-04-25T01:06:13;99152.20;;;21.47;38.36
76827;BME280;65788;52.284;20.890;2023-04-25T01:08:40;99146.73;;;21.44;38.42
76827;BME280;65788;52.284;20.890;2023-04-25T01:11:08;99142.45;;;21.44;38.40
76827;BME280;65788;52.284;20.890;2023-04-25T01:13:35;99145.61;;;21.44;38.38
76827;BME280;65788;52.284;20.890;2023-04-25T01:16:02;99147.04;;;21.41;38.46
76827;BME280;65788;52.284;20.890;2023-04-25T01:18:32;99143.86;;;21.40;38.44
76827;BME280;65788;52.284;20.890;2023-04-25T01:21:10;99141.23;;;21.39;38.45
76827;BME280;65788;52.284;20.890;2023-04-25T01:23:38;99142.68;;;21.38;38.48
76827;BME280;65788;52.284;20.890;2023-04-25T01:26:11;99142.52;;;21.39;38.46
76827;BME280;65788;52.284;20.890;2023-04-25T01:28:39;99148.05;;;21.37;38.54
76827;BME280;65788;52.284;20.890;2023-04-25T01:31:11;99150.01;;;21.36;38.47
76827;BME280;65788;52.284;20.890;2023-04-25T01:33:38;99146.09;;;21.34;38.51
76827;BME280;65788;52.284;20.890;2023-04-25T01:36:06;99144.14;;;21.33;38.53
76827;BME280;65788;52.284;20.890;2023-04-25T01:38:33;99141.59;;;21.33;38.54
76827;BME280;65788;52.284;20.890;2023-04-25T01:41:00;99140.41;;;21.32;38.58
76827;BME280;65788;52.284;20.890;2023-04-25T01:43:27;99139.73;;;21.31;38.53
76827;BME280;65788;52.284;20.890;2023-04-25T01:45:55;99139.75;;;21.32;38.55
76827;BME280;65788;52.284;20.890;2023-04-25T01:48:23;99140.41;;;21.32;38.47
76827;BME280;65788;52.284;20.890;2023-04-25T01:50:50;99141.30;;;21.32;38.51
76827;BME280;65788;52.284;20.890;2023-04-25T01:53:17;99142.45;;;21.30;38.51
76827;BME280;65788;52.284;20.890;2023-04-25T01:55:46;99140.59;;;21.28;38.56
76827;BME280;65788;52.284;20.890;2023-04-25T01:58:15;99135.13;;;21.26;38.58
76827;BME280;65788;52.284;20.890;2023-04-25T02:00:41;99133.80;;;21.26;38.57
76827;BME280;65788;52.284;20.890;2023-04-25T02:03:08;99133.02;;;21.27;38.56
76827;BME280;65788;52.284;20.890;2023-04-25T02:05:39;99132.23;;;21.27;38.58
76827;BME280;65788;52.284;20.890;2023-04-25T02:08:08;99136.17;;;21.27;38.56
76827;BME280;65788;52.284;20.890;2023-04-25T02:10:35;99133.79;;;21.26;38.65
76827;BME280;65788;52.284;20.890;2023-04-25T02:13:03;99137.83;;;21.23;38.61
76827;BME280;65788;52.284;20.890;2023-04-25T02:15:31;99137.39;;;21.24;38.59
76827;BME280;65788;52.284;20.890;2023-04-25T02:17:59;99135.48;;;21.23;38.58
76827;BME280;65788;52.284;20.890;2023-04-25T02:20:29;99136.80;;;21.25;38.54
76827;BME280;65788;52.284;20.890;2023-04-25T02:22:58;99134.81;;;21.21;38.62
76827;BME280;65788;52.284;20.890;2023-04-25T02:25:25;99135.96;;;21.20;38.67
76827;BME280;65788;52.284;20.890;2023-04-25T02:27:52;99133.14;;;21.22;38.61
76827;BME280;65788;52.284;20.890;2023-04-25T02:30:19;99130.44;;;21.23;38.53
76827;BME280;65788;52.284;20.890;2023-04-25T02:32:46;99125.52;;;21.20;38.63
76827;BME280;65788;52.284;20.890;2023-04-25T02:35:13;99122.27;;;21.20;38.61
76827;BME280;65788;52.284;20.890;2023-04-25T02:37:42;99121.39;;;21.19;38.65
76827;BME280;65788;52.284;20.890;2023-04-25T02:40:10;99117.09;;;21.19;38.68
76827;BME280;65788;52.284;20.890;2023-04-25T02:42:37;99116.41;;;21.18;38.63
76827;BME280;65788;52.284;20.890;2023-04-25T02:45:04;99122.41;;;21.16;38.66
76827;BME280;65788;52.284;20.890;2023-04-25T02:47:31;99122.79;;;21.15;38.69
76827;BME280;65788;52.284;20.890;2023-04-25T02:49:58;99122.32;;;21.18;38.64
76827;BME280;65788;52.284;20.890;2023-04-25T02:52:25;99122.31;;;21.16;38.67
76827;BME280;65788;52.284;20.890;2023-04-25T02:54:51;99122.23;;;21.15;38.77
76827;BME280;65788;52.284;20.890;2023-04-25T02:57:19;99125.09;;;21.17;38.68
76827;BME280;65788;52.284;20.890;2023-04-25T02:59:46;99125.74;;;21.16;38.69
76827;BME280;65788;52.284;20.890;2023-04-25T03:02:13;99124.56;;;21.14;38.69
76827;BME280;65788;52.284;20.890;2023-04-25T03:04:40;99128.06;;;21.13;38.72
76827;BME280;65788;52.284;20.890;2023-04-25T03:07:07;99126.95;;;21.12;38.87
76827;BME280;65788;52.284;20.890;2023-04-25T03:09:34;99122.71;;;21.13;38.73
76827;BME280;65788;52.284;20.890;2023-04-25T03:12:01;99121.96;;;21.10;38.77
76827;BME280;65788;52.284;20.890;2023-04-25T03:14:28;99120.31;;;21.11;38.85
76827;BME280;65788;52.284;20.890;2023-04-25T03:16:55;99117.05;;;21.13;38.80
76827;BME280;65788;52.284;20.890;2023-04-25T03:19:22;99119.09;;;21.12;38.78
76827;BME280;65788;52.284;20.890;2023-04-25T03:21:49;99114.31;;;21.12;38.79
76827;BME280;65788;52.284;20.890;2023-04-25T03:24:16;99118.02;;;21.09;38.83
76827;BME280;65788;52.284;20.890;2023-04-25T03:26:43;99119.57;;;21.09;38.87
76827;BME280;65788;52.284;20.890;2023-04-25T03:29:10;99123.23;;;21.07;39.01
76827;BME280;65788;52.284;20.890;2023-04-25T03:31:37;99123.99;;;21.06;38.88
76827;BME280;65788;52.284;20.890;2023-04-25T03:34:04;99127.91;;;21.09;38.86
76827;BME280;65788;52.284;20.890;2023-04-25T03:36:31;99131.91;;;21.07;38.88
76827;BME280;65788;52.284;20.890;2023-04-25T03:38:59;99129.95;;;21.06;38.87
76827;BME280;65788;52.284;20.890;2023-04-25T03:41:26;99129.77;;;21.05;38.96
76827;BME280;65788;52.284;20.890;2023-04-25T03:43:53;99133.66;;;21.05;38.87
76827;BME280;65788;52.284;20.890;2023-04-25T03:46:20;99132.70;;;21.03;38.92
76827;BME280;65788;52.284;20.890;2023-04-25T03:48:47;99135.98;;;21.03;38.91
76827;BME280;65788;52.284;20.890;2023-04-25T03:51:14;99139.40;;;21.05;38.87
76827;BME280;65788;52.284;20.890;2023-04-25T03:53:41;99140.41;;;21.05;38.87
76827;BME280;65788;52.284;20.890;2023-04-25T03:56:07;99142.05;;;21.04;38.88
76827;BME280;65788;52.284;20.890;2023-04-25T03:58:35;99142.75;;;21.01;38.93
76827;BME280;65788;52.284;20.890;2023-04-25T04:01:02;99149.11;;;21.03;38.91
76827;BME280;65788;52.284;20.890;2023-04-25T04:03:34;99147.58;;;21.04;38.86
76827;BME280;65788;52.284;20.890;2023-04-25T04:06:04;99152.09;;;21.01;38.92
76827;BME280;65788;52.284;20.890;2023-04-25T04:08:32;99153.77;;;21.00;38.94
76827;BME280;65788;52.284;20.890;2023-04-25T04:11:00;99154.41;;;20.99;38.91
76827;BME280;65788;52.284;20.890;2023-04-25T04:13:27;99155.70;;;20.99;38.90
76827;BME280;65788;52.284;20.890;2023-04-25T04:15:55;99164.88;;;21.00;38.94
76827;BME280;65788;52.284;20.890;2023-04-25T04:18:22;99165.81;;;20.98;38.96
76827;BME280;65788;52.284;20.890;2023-04-25T04:20:49;99167.66;;;21.00;38.89
76827;BME280;65788;52.284;20.890;2023-04-25T04:23:16;99166.35;;;20.96;38.92
76827;BME280;65788;52.284;20.890;2023-04-25T04:25:43;99168.34;;;20.96;38.93
76827;BME280;65788;52.284;20.890;2023-04-25T04:28:11;99168.98;;;20.97;38.97
76827;BME280;65788;52.284;20.890;2023-04-25T04:30:40;99170.86;;;20.97;38.90
76827;BME280;65788;52.284;20.890;2023-04-25T04:33:08;99175.65;;;20.97;38.96
76827;BME280;65788;52.284;20.890;2023-04-25T04:35:36;99176.76;;;20.97;38.94
76827;BME280;65788;52.284;20.890;2023-04-25T04:38:05;99177.58;;;20.96;38.99
76827;BME280;65788;52.284;20.890;2023-04-25T04:40:32;99177.56;;;20.96;38.97
76827;BME280;65788;52.284;20.890;2023-04-25T04:42:59;99176.22;;;20.94;38.93
76827;BME280;65788;52.284;20.890;2023-04-25T04:45:26;99168.40;;;20.91;39.01
76827;BME280;65788;52.284;20.890;2023-04-25T04:47:54;99168.59;;;20.93;38.97
76827;BME280;65788;52.284;20.890;2023-04-25T04:50:21;99165.80;;;20.92;38.99
76827;BME280;65788;52.284;20.890;2023-04-25T04:52:49;99171.54;;;20.93;39.00
76827;BME280;65788;52.284;20.890;2023-04-25T04:55:16;99170.80;;;20.92;38.99
76827;BME280;65788;52.284;20.890;2023-04-25T04:57:43;99171.52;;;20.92;39.01
76827;BME280;65788;52.284;20.890;2023-04-25T05:00:11;99169.86;;;20.92;38.99
76827;BME280;65788;52.284;20.890;2023-04-25T05:02:38;99168.33;;;20.89;39.06
76827;BME280;65788;52.284;20.890;2023-04-25T05:05:06;99173.39;;;20.90;39.07
76827;BME280;65788;52.284;20.890;2023-04-25T05:07:34;99175.46;;;20.90;39.07
76827;BME280;65788;52.284;20.890;2023-04-25T05:10:01;99174.35;;;20.91;39.17
76827;BME280;65788;52.284;20.890;2023-04-25T05:12:28;99176.02;;;20.91;39.21
76827;BME280;65788;52.284;20.890;2023-04-25T05:14:55;99174.96;;;20.89;39.26
76827;BME280;65788;52.284;20.890;2023-04-25T05:17:21;99172.16;;;20.88;39.27
76827;BME280;65788;52.284;20.890;2023-04-25T05:19:48;99175.66;;;20.87;39.25
76827;BME280;65788;52.284;20.890;2023-04-25T05:22:15;99173.48;;;20.87;39.29
76827;BME280;65788;52.284;20.890;2023-04-25T05:24:42;99177.86;;;20.85;39.28
76827;BME280;65788;52.284;20.890;2023-04-25T05:27:09;99177.31;;;20.86;39.25
76827;BME280;65788;52.284;20.890;2023-04-25T05:29:36;99183.95;;;20.88;39.22
76827;BME280;65788;52.284;20.890;2023-04-25T05:32:05;99185.27;;;20.88;39.32
76827;BME280;65788;52.284;20.890;2023-04-25T05:34:35;99187.61;;;20.86;39.33
76827;BME280;65788;52.284;20.890;2023-04-25T05:37:03;99190.16;;;20.87;39.30
76827;BME280;65788;52.284;20.890;2023-04-25T05:39:30;99196.95;;;20.88;39.33
76827;BME280;65788;52.284;20.890;2023-04-25T05:41:57;99199.69;;;20.88;39.36
76827;BME280;65788;52.284;20.890;2023-04-25T05:44:23;99203.05;;;20.86;39.36
76827;BME280;65788;52.284;20.890;2023-04-25T05:46:50;99203.72;;;20.86;39.35
76827;BME280;65788;52.284;20.890;2023-04-25T05:49:17;99202.91;;;20.87;39.35
76827;BME280;65788;52.284;20.890;2023-04-25T05:51:44;99203.41;;;20.84;39.43
76827;BME280;65788;52.284;20.890;2023-04-25T05:54:11;99199.69;;;20.84;39.42
76827;BME280;65788;52.284;20.890;2023-04-25T05:56:40;99197.80;;;20.84;39.37
76827;BME280;65788;52.284;20.890;2023-04-25T05:59:07;99198.80;;;20.84;39.43
76827;BME280;65788;52.284;20.890;2023-04-25T06:01:34;99195.20;;;20.85;39.40
76827;BME280;65788;52.284;20.890;2023-04-25T06:04:02;99201.15;;;20.84;39.39
76827;BME280;65788;52.284;20.890;2023-04-25T06:06:29;99203.57;;;20.84;39.44
76827;BME280;65788;52.284;20.890;2023-04-25T06:08:56;99206.88;;;20.85;39.37
76827;BME280;65788;52.284;20.890;2023-04-25T06:11:23;99207.28;;;20.81;39.45
76827;BME280;65788;52.284;20.890;2023-04-25T06:13:50;99213.58;;;20.81;39.55
76827;BME280;65788;52.284;20.890;2023-04-25T06:16:17;99212.38;;;20.83;39.53
76827;BME280;65788;52.284;20.890;2023-04-25T06:18:44;99211.65;;;20.84;39.51
76827;BME280;65788;52.284;20.890;2023-04-25T06:21:11;99216.79;;;20.85;39.41
76827;BME280;65788;52.284;20.890;2023-04-25T06:23:38;99216.95;;;20.84;39.45
76827;BME280;65788;52.284;20.890;2023-04-25T06:26:05;99222.73;;;20.84;39.49
76827;BME280;65788;52.284;20.890;2023-04-25T06:28:32;99225.14;;;20.86;39.56
76827;BME280;65788;52.284;20.890;2023-04-25T06:30:59;99228.54;;;20.87;39.61
76827;BME280;65788;52.284;20.890;2023-04-25T06:33:26;99234.35;;;20.85;39.65
76827;BME280;65788;52.284;20.890;2023-04-25T06:35:53;99239.30;;;20.85;39.63
76827;BME280;65788;52.284;20.890;2023-04-25T06:38:20;99251.46;;;20.84;39.67
76827;BME280;65788;52.284;20.890;2023-04-25T06:40:47;99260.28;;;20.82;39.71
76827;BME280;65788;52.284;20.890;2023-04-25T06:43:14;99265.98;;;20.83;39.62
76827;BME280;65788;52.284;20.890;2023-04-25T06:45:41;99274.14;;;20.82;39.70
76827;BME280;65788;52.284;20.890;2023-04-25T06:48:08;99281.97;;;20.81;39.66
76827;BME280;65788;52.284;20.890;2023-04-25T06:50:35;99282.25;;;20.81;39.69
76827;BME280;65788;52.284;20.890;2023-04-25T06:53:02;99278.77;;;20.80;39.59
76827;BME280;65788;52.284;20.890;2023-04-25T06:55:29;99271.38;;;20.78;39.73
76827;BME280;65788;52.284;20.890;2023-04-25T06:57:57;99267.85;;;20.78;39.64
76827;BME280;65788;52.284;20.890;2023-04-25T07:00:23;99261.17;;;20.76;39.63
76827;BME280;65788;52.284;20.890;2023-04-25T07:02:50;99255.23;;;20.77;39.67
76827;BME280;65788;52.284;20.890;2023-04-25T07:05:20;99253.88;;;20.76;39.63
76827;BME280;65788;52.284;20.890;2023-04-25T07:07:48;99257.82;;;20.75;39.61
76827;BME280;65788;52.284;20.890;2023-04-25T07:10:15;99260.24;;;20.72;39.60
76827;BME280;65788;52.284;20.890;2023-04-25T07:12:42;99257.52;;;20.75;39.59
76827;BME280;65788;52.284;20.890;2023-04-25T07:15:09;99257.87;;;20.75;39.56
76827;BME280;65788;52.284;20.890;2023-04-25T07:17:37;99254.81;;;20.75;39.53
76827;BME280;65788;52.284;20.890;2023-04-25T07:20:05;99252.39;;;20.78;39.45
76827;BME280;65788;52.284;20.890;2023-04-25T07:22:32;99251.02;;;20.78;39.44
76827;BME280;65788;52.284;20.890;2023-04-25T07:24:59;99253.50;;;20.78;39.44
76827;BME280;65788;52.284;20.890;2023-04-25T07:27:27;99253.02;;;20.79;39.53
76827;BME280;65788;52.284;20.890;2023-04-25T07:29:54;99252.31;;;20.80;39.54
76827;BME280;65788;52.284;20.890;2023-04-25T07:32:25;99255.92;;;20.80;39.47
76827;BME280;65788;52.284;20.890;2023-04-25T07:34:52;99254.80;;;20.79;39.48
76827;BME280;65788;52.284;20.890;2023-04-25T07:37:19;99255.83;;;20.77;39.54
76827;BME280;65788;52.284;20.890;2023-04-25T07:39:46;99253.55;;;20.77;39.60
76827;BME280;65788;52.284;20.890;2023-04-25T07:42:14;99251.56;;;20.78;39.53
76827;BME280;65788;52.284;20.890;2023-04-25T07:44:41;99254.70;;;20.79;39.51
76827;BME280;65788;52.284;20.890;2023-04-25T07:47:09;99257.42;;;20.80;39.50
76827;BME280;65788;52.284;20.890;2023-04-25T07:49:37;99259.77;;;20.81;39.46
76827;BME280;65788;52.284;20.890;2023-04-25T07:52:05;99263.39;;;20.81;39.49
76827;BME280;65788;52.284;20.890;2023-04-25T07:54:34;99267.67;;;20.81;39.52
76827;BME280;65788;52.284;20.890;2023-04-25T07:57:01;99262.05;;;20.80;39.57
76827;BME280;65788;52.284;20.890;2023-04-25T07:59:29;99264.57;;;20.82;39.48
76827;BME280;65788;52.284;20.890;2023-04-25T08:01:56;99266.48;;;20.83;39.51
76827;BME280;65788;52.284;20.890;2023-04-25T08:04:24;99270.81;;;20.83;39.47
76827;BME280;65788;52.284;20.890;2023-04-25T08:06:52;99270.74;;;20.82;39.52
76827;BME280;65788;52.284;20.890;2023-04-25T08:09:20;99269.36;;;20.83;39.54
76827;BME280;65788;52.284;20.890;2023-04-25T08:11:47;99273.71;;;20.83;39.50
76827;BME280;65788;52.284;20.890;2023-04-25T08:14:14;99268.98;;;20.84;39.50
76827;BME280;65788;52.284;20.890;2023-04-25T08:16:41;99272.55;;;20.84;39.47
76827;BME280;65788;52.284;20.890;2023-04-25T08:19:09;99268.69;;;20.82;39.60
76827;BME280;65788;52.284;20.890;2023-04-25T08:21:37;99272.88;;;20.83;39.60
76827;BME280;65788;52.284;20.890;2023-04-25T08:24:04;99273.97;;;20.83;39.59
76827;BME280;65788;52.284;20.890;2023-04-25T08:26:31;99272.70;;;20.82;39.65
76827;BME280;65788;52.284;20.890;2023-04-25T08:28:58;99272.87;;;20.82;39.80
76827;BME280;65788;52.284;20.890;2023-04-25T08:31:25;99276.34;;;21.04;41.20
76827;BME280;65788;52.284;20.890;2023-04-25T08:33:53;99278.95;;;21.13;40.70
76827;BME280;65788;52.284;20.890;2023-04-25T08:36:22;99285.65;;;21.22;40.28
76827;BME280;65788;52.284;20.890;2023-04-25T08:38:50;99282.39;;;21.34;40.14
76827;BME280;65788;52.284;20.890;2023-04-25T08:41:18;99280.51;;;21.39;39.83
76827;BME280;65788;52.284;20.890;2023-04-25T08:43:48;99278.96;;;21.48;38.97
76827;BME280;65788;52.284;20.890;2023-04-25T08:46:17;99284.51;;;21.54;38.64
76827;BME280;65788;52.284;20.890;2023-04-25T08:48:45;99289.25;;;21.55;38.67
76827;BME280;65788;52.284;20.890;2023-04-25T08:51:21;99294.57;;;21.58;38.66
76827;BME280;65788;52.284;20.890;2023-04-25T08:53:52;99295.41;;;21.59;38.63
76827;BME280;65788;52.284;20.890;2023-04-25T08:56:19;99303.30;;;21.69;38.30
76827;BME280;65788;52.284;20.890;2023-04-25T08:58:49;99306.50;;;21.72;38.19
76827;BME280;65788;52.284;20.890;2023-04-25T09:01:17;99308.95;;;21.72;38.01
76827;BME280;65788;52.284;20.890;2023-04-25T09:03:45;99310.54;;;21.75;37.90
76827;BME280;65788;52.284;20.890;2023-04-25T09:06:13;99317.50;;;21.76;37.75
76827;BME280;65788;52.284;20.890;2023-04-25T09:08:42;99317.98;;;21.79;37.62
76827;BME280;65788;52.284;20.890;2023-04-25T09:11:09;99319.80;;;21.84;37.86
76827;BME280;65788;52.284;20.890;2023-04-25T09:13:36;99327.19;;;21.87;37.69
76827;BME280;65788;52.284;20.890;2023-04-25T09:16:04;99328.20;;;21.83;37.57
76827;BME280;65788;52.284;20.890;2023-04-25T09:18:33;99330.61;;;21.84;37.38
76827;BME280;65788;52.284;20.890;2023-04-25T09:21:10;99329.58;;;21.87;37.55
76827;BME280;65788;52.284;20.890;2023-04-25T09:23:45;99325.64;;;21.88;37.21
76827;BME280;65788;52.284;20.890;2023-04-25T09:26:17;99328.59;;;21.87;37.24
76827;BME280;65788;52.284;20.890;2023-04-25T09:28:45;99323.92;;;21.91;37.35
76827;BME280;65788;52.284;20.890;2023-04-25T09:31:21;99321.00;;;21.94;37.15
76827;BME280;65788;52.284;20.890;2023-04-25T09:33:48;99320.08;;;21.97;37.01
76827;BME280;65788;52.284;20.890;2023-04-25T09:36:16;99327.60;;;22.04;37.01
76827;BME280;65788;52.284;20.890;2023-04-25T09:38:44;99331.01;;;22.04;37.10
76827;BME280;65788;52.284;20.890;2023-04-25T09:41:12;99334.56;;;22.02;37.01
76827;BME280;65788;52.284;20.890;2023-04-25T09:43:39;99333.55;;;22.02;37.08
76827;BME280;65788;52.284;20.890;2023-04-25T09:46:10;99338.98;;;22.06;36.94
76827;BME280;65788;52.284;20.890;2023-04-25T09:48:37;99333.00;;;22.02;36.96
76827;BME280;65788;52.284;20.890;2023-04-25T09:51:05;99340.42;;;22.05;36.82
76827;BME280;65788;52.284;20.890;2023-04-25T09:53:42;99341.19;;;22.09;36.74
76827;BME280;65788;52.284;20.890;2023-04-25T09:56:11;99347.64;;;22.08;36.74
76827;BME280;65788;52.284;20.890;2023-04-25T09:58:40;99355.36;;;22.13;36.83
76827;BME280;65788;52.284;20.890;2023-04-25T10:01:08;99353.42;;;22.14;37.05
76827;BME280;65788;52.284;20.890;2023-04-25T10:03:38;99355.80;;;22.18;36.59
76827;BME280;65788;52.284;20.890;2023-04-25T10:06:19;99361.23;;;22.20;36.48
76827;BME280;65788;52.284;20.890;2023-04-25T10:08:50;99360.67;;;22.23;36.65
76827;BME280;65788;52.284;20.890;2023-04-25T10:11:18;99362.25;;;22.18;36.62
76827;BME280;65788;52.284;20.890;2023-04-25T10:13:45;99367.02;;;22.20;36.72
76827;BME280;65788;52.284;20.890;2023-04-25T10:16:12;99363.71;;;22.26;36.60
76827;BME280;65788;52.284;20.890;2023-04-25T10:18:42;99365.27;;;22.25;36.55
76827;BME280;65788;52.284;20.890;2023-04-25T10:21:10;99366.92;;;22.22;36.65
76827;BME280;65788;52.284;20.890;2023-04-25T10:23:37;99361.30;;;22.22;36.49
76827;BME280;65788;52.284;20.890;2023-04-25T10:26:05;99364.33;;;22.18;36.59
76827;BME280;65788;52.284;20.890;2023-04-25T10:31:24;99364.96;;;22.20;36.46
76827;BME280;65788;52.284;20.890;2023-04-25T10:33:53;99365.43;;;22.11;36.80
76827;BME280;65788;52.284;20.890;2023-04-25T10:36:24;99362.95;;;21.99;36.88
76827;BME280;65788;52.284;20.890;2023-04-25T10:38:53;99367.16;;;21.98;36.94
76827;BME280;65788;52.284;20.890;2023-04-25T10:41:21;99366.25;;;22.08;37.35
76827;BME280;65788;52.284;20.890;2023-04-25T10:43:50;99362.30;;;22.09;36.69
76827;BME280;65788;52.284;20.890;2023-04-25T10:46:28;99364.13;;;22.07;36.70
76827;BME280;65788;52.284;20.890;2023-04-25T10:49:00;99364.61;;;22.12;36.68
76827;BME280;65788;52.284;20.890;2023-04-25T10:51:29;99365.89;;;22.12;36.60
76827;BME280;65788;52.284;20.890;2023-04-25T10:54:06;99368.45;;;22.17;36.61
76827;BME280;65788;52.284;20.890;2023-04-25T10:56:37;99361.08;;;22.22;36.38
76827;BME280;65788;52.284;20.890;2023-04-25T10:59:07;99360.18;;;22.22;36.74
76827;BME280;65788;52.284;20.890;2023-04-25T11:01:41;99358.45;;;22.22;36.60
76827;BME280;65788;52.284;20.890;2023-04-25T11:09:18;99362.23;;;22.21;36.59
76827;BME280;65788;52.284;20.890;2023-04-25T11:11:56;99364.54;;;22.25;36.58
76827;BME280;65788;52.284;20.890;2023-04-25T11:14:25;99366.73;;;22.28;36.46
76827;BME280;65788;52.284;20.890;2023-04-25T11:16:56;99364.73;;;22.30;36.44
76827;BME280;65788;52.284;20.890;2023-04-25T11:19:26;99365.74;;;22.34;37.18
76827;BME280;65788;52.284;20.890;2023-04-25T11:21:58;99362.30;;;22.29;36.48
76827;BME280;65788;52.284;20.890;2023-04-25T11:24:35;99362.13;;;22.30;36.54
76827;BME280;65788;52.284;20.890;2023-04-25T11:27:03;99363.70;;;22.31;36.54
76827;BME280;65788;52.284;20.890;2023-04-25T11:29:32;99361.27;;;22.26;36.85
76827;BME280;65788;52.284;20.890;2023-04-25T11:31:59;99364.98;;;22.15;36.89
76827;BME280;65788;52.284;20.890;2023-04-25T11:34:30;99365.64;;;22.07;36.98
76827;BME280;65788;52.284;20.890;2023-04-25T11:36:57;99364.60;;;22.02;37.12
76827;BME280;65788;52.284;20.890;2023-04-25T11:39:25;99365.66;;;21.98;37.06
76827;BME280;65788;52.284;20.890;2023-04-25T11:41:53;99367.08;;;21.95;37.09
76827;BME280;65788;52.284;20.890;2023-04-25T11:44:21;99364.90;;;21.93;37.26
76827;BME280;65788;52.284;20.890;2023-04-25T11:46:48;99368.26;;;21.89;37.28
76827;BME280;65788;52.284;20.890;2023-04-25T11:49:15;99363.80;;;21.89;37.30
76827;BME280;65788;52.284;20.890;2023-04-25T11:51:46;99365.86;;;21.89;37.29
76827;BME280;65788;52.284;20.890;2023-04-25T11:54:14;99368.70;;;21.89;37.36
76827;BME280;65788;52.284;20.890;2023-04-25T11:56:43;99368.91;;;21.87;37.38
76827;BME280;65788;52.284;20.890;2023-04-25T11:59:10;99366.90;;;21.87;37.34
76827;BME280;65788;52.284;20.890;2023-04-25T12:01:40;99364.34;;;21.82;37.44
76827;BME280;65788;52.284;20.890;2023-04-25T12:06:42;99365.05;;;21.75;37.53
76827;BME280;65788;52.284;20.890;2023-04-25T12:09:11;99365.94;;;21.81;39.59
76827;BME280;65788;52.284;20.890;2023-04-25T12:11:43;99370.73;;;21.31;40.18
76827;BME280;65788;52.284;20.890;2023-04-25T12:14:12;99368.90;;;20.67;41.45
76827;BME280;65788;52.284;20.890;2023-04-25T12:16:46;99366.16;;;20.42;42.00
76827;BME280;65788;52.284;20.890;2023-04-25T12:19:17;99360.63;;;20.46;41.80
76827;BME280;65788;52.284;20.890;2023-04-25T12:21:44;99365.12;;;20.41;42.52
76827;BME280;65788;52.284;20.890;2023-04-25T12:24:21;99361.36;;;20.29;43.18
76827;BME280;65788;52.284;20.890;2023-04-25T12:29:27;99364.16;;;20.56;41.79
76827;BME280;65788;52.284;20.890;2023-04-25T12:31:55;99364.73;;;20.83;41.26
76827;BME280;65788;52.284;20.890;2023-04-25T12:34:23;99365.98;;;20.67;41.83
76827;BME280;65788;52.284;20.890;2023-04-25T12:36:51;99363.12;;;20.76;41.16
76827;BME280;65788;52.284;20.890;2023-04-25T12:39:23;99362.05;;;20.79;40.91
76827;BME280;65788;52.284;20.890;2023-04-25T12:41:50;99362.95;;;20.70;41.29
76827;BME280;65788;52.284;20.890;2023-04-25T12:44:20;99364.88;;;20.52;41.53
76827;BME280;65788;52.284;20.890;2023-04-25T12:46:48;99366.59;;;20.44;42.03
76827;BME280;65788;52.284;20.890;2023-04-25T12:49:16;99367.61;;;20.24;42.40
76827;BME280;65788;52.284;20.890;2023-04-25T12:51:42;99366.98;;;20.37;42.15
76827;BME280;65788;52.284;20.890;2023-04-25T12:54:09;99368.66;;;20.27;42.11
76827;BME280;65788;52.284;20.890;2023-04-25T12:56:36;99368.09;;;20.19;42.35
76827;BME280;65788;52.284;20.890;2023-04-25T12:59:03;99366.42;;;20.58;41.13
76827;BME280;65788;52.284;20.890;2023-04-25T13:01:32;99365.42;;;20.21;42.36
76827;BME280;65788;52.284;20.890;2023-04-25T13:04:00;99361.11;;;20.68;41.36
76827;BME280;65788;52.284;20.890;2023-04-25T13:06:27;99356.42;;;21.29;38.57
76827;BME280;65788;52.284;20.890;2023-04-25T13:08:54;99353.91;;;21.50;37.95